createdAt,value
2017-01-13T00:00:04.979Z,989.29
2017-01-13T00:01:05.727Z,989.24
2017-01-13T00:02:06.487Z,989.21
2017-01-13T00:03:07.228Z,989.18
2017-01-13T00:04:07.987Z,989.13
2017-01-13T00:05:08.782Z,989.13
2017-01-13T00:06:09.523Z,989.1
2017-01-13T00:07:10.287Z,989.08
2017-01-13T00:08:11.057Z,989.08
2017-01-13T00:09:11.848Z,989.06
2017-01-13T00:10:12.592Z,989
2017-01-13T00:11:13.352Z,989.01
2017-01-13T00:12:14.116Z,988.99
2017-01-13T00:13:14.898Z,988.94
2017-01-13T00:14:15.645Z,988.92
2017-01-13T00:15:16.399Z,988.86
2017-01-13T00:16:17.156Z,988.84
2017-01-13T00:17:17.917Z,988.82
2017-01-13T00:18:18.659Z,988.81
2017-01-13T00:19:19.435Z,988.82
2017-01-13T00:20:20.191Z,988.79
2017-01-13T00:21:20.951Z,988.74
2017-01-13T00:22:21.719Z,988.73
2017-01-13T00:23:22.478Z,988.74
2017-01-13T00:24:23.253Z,988.74
2017-01-13T00:25:24.014Z,988.69
2017-01-13T00:26:24.752Z,988.67
2017-01-13T00:27:25.530Z,988.62
2017-01-13T00:28:26.279Z,988.61
2017-01-13T00:29:27.027Z,988.6
2017-01-13T00:30:27.804Z,988.54
2017-01-13T00:31:28.578Z,988.43
2017-01-13T00:32:29.326Z,988.41
2017-01-13T00:33:30.100Z,988.41
2017-01-13T00:34:30.856Z,988.35
2017-01-13T00:35:31.632Z,988.32
2017-01-13T00:36:32.410Z,988.26
2017-01-13T00:37:33.181Z,988.22
2017-01-13T00:38:33.948Z,988.23
2017-01-13T00:39:34.732Z,988.17
2017-01-13T00:40:35.501Z,988.18
2017-01-13T00:41:36.269Z,988.17
2017-01-13T00:42:37.018Z,988.14
2017-01-13T00:43:37.848Z,988.15
2017-01-13T00:44:38.597Z,988.06
2017-01-13T00:45:39.339Z,988.07
2017-01-13T00:46:40.098Z,988.11
2017-01-13T00:47:40.869Z,988.11
2017-01-13T00:48:41.621Z,988.06
2017-01-13T00:49:42.388Z,988.02
2017-01-13T00:50:43.145Z,988.03
2017-01-13T00:51:43.912Z,988.03
2017-01-13T00:52:44.660Z,988.03
2017-01-13T00:53:45.416Z,988.04
2017-01-13T00:54:46.170Z,988.07
2017-01-13T00:55:46.921Z,988.07
2017-01-13T00:56:47.687Z,988.06
2017-01-13T00:57:48.427Z,987.98
2017-01-13T00:58:49.204Z,988.04
2017-01-13T00:59:49.963Z,987.97
2017-01-13T01:00:50.716Z,987.94
2017-01-13T01:01:51.461Z,987.93
2017-01-13T01:02:52.212Z,987.91
2017-01-13T01:03:52.969Z,987.88
2017-01-13T01:04:53.748Z,987.89
2017-01-13T01:05:54.523Z,987.9
2017-01-13T01:06:55.271Z,987.87
2017-01-13T01:07:56.014Z,987.87
2017-01-13T01:08:56.763Z,987.86
2017-01-13T01:09:57.537Z,987.81
2017-01-13T01:10:58.287Z,987.83
2017-01-13T01:11:59.066Z,987.75
2017-01-13T01:12:59.835Z,987.66
2017-01-13T01:14:00.576Z,987.69
2017-01-13T01:15:01.333Z,987.6
2017-01-13T01:16:02.107Z,987.62
2017-01-13T01:17:02.872Z,987.59
2017-01-13T01:18:03.622Z,987.56
2017-01-13T01:19:04.377Z,987.52
2017-01-13T01:20:05.141Z,987.52
2017-01-13T01:21:05.885Z,987.43
2017-01-13T01:22:06.659Z,987.37
2017-01-13T01:23:07.389Z,987.38
2017-01-13T01:24:08.163Z,987.41
2017-01-13T01:25:08.918Z,987.3
2017-01-13T01:26:09.684Z,987.29
2017-01-13T01:27:10.412Z,987.26
2017-01-13T01:28:11.226Z,987.24
2017-01-13T01:29:11.968Z,987.21
2017-01-13T01:30:12.716Z,987.22
2017-01-13T01:31:13.465Z,987.17
2017-01-13T01:32:14.236Z,987.16
2017-01-13T01:33:15.007Z,987.16
2017-01-13T01:34:15.757Z,987.13
2017-01-13T01:35:16.512Z,987.12
2017-01-13T01:36:17.278Z,987.1
2017-01-13T01:37:18.036Z,987.04
2017-01-13T01:38:18.887Z,987.01
2017-01-13T01:39:19.633Z,986.99
2017-01-13T01:40:20.384Z,986.95
2017-01-13T01:41:21.140Z,986.97
2017-01-13T01:42:21.889Z,986.93
2017-01-13T01:43:22.656Z,986.91
2017-01-13T01:44:23.402Z,986.85
2017-01-13T01:45:24.193Z,986.82
2017-01-13T01:46:24.944Z,986.8
2017-01-13T01:47:25.706Z,986.75
2017-01-13T01:48:26.464Z,986.69
2017-01-13T01:49:27.215Z,986.73
2017-01-13T01:50:27.991Z,986.68
2017-01-13T01:51:28.748Z,986.63
2017-01-13T01:52:29.508Z,986.62
2017-01-13T01:53:30.289Z,986.61
2017-01-13T01:54:31.049Z,986.56
2017-01-13T01:55:31.795Z,986.54
2017-01-13T01:56:32.553Z,986.51
2017-01-13T01:57:33.308Z,986.51
2017-01-13T01:58:34.058Z,986.5
2017-01-13T01:59:34.817Z,986.44
2017-01-13T02:00:35.631Z,986.44
2017-01-13T02:01:36.387Z,986.41
2017-01-13T02:02:37.157Z,986.38
2017-01-13T02:03:37.934Z,986.41
2017-01-13T02:04:38.687Z,986.34
2017-01-13T02:05:39.452Z,986.35
2017-01-13T02:06:40.201Z,986.33
2017-01-13T02:07:40.975Z,986.25
2017-01-13T02:08:41.737Z,986.31
2017-01-13T02:09:42.485Z,986.26
2017-01-13T02:10:43.246Z,986.21
2017-01-13T02:11:44.014Z,986.24
2017-01-13T02:12:44.786Z,986.19
2017-01-13T02:13:45.559Z,986.18
2017-01-13T02:14:46.327Z,986.18
2017-01-13T02:15:47.069Z,986.16
2017-01-13T02:16:47.825Z,986.1
2017-01-13T02:17:48.564Z,986.14
2017-01-13T02:18:49.311Z,986.09
2017-01-13T02:19:50.066Z,986.02
2017-01-13T02:20:50.820Z,985.98
2017-01-13T02:21:51.571Z,985.99
2017-01-13T02:22:52.306Z,985.98
2017-01-13T02:23:53.055Z,985.97
2017-01-13T02:24:53.801Z,985.92
2017-01-13T02:25:54.536Z,985.96
2017-01-13T02:26:55.311Z,985.96
2017-01-13T02:27:56.129Z,985.94
2017-01-13T02:28:56.818Z,985.86
2017-01-13T02:29:57.609Z,985.84
2017-01-13T02:30:58.402Z,985.82
2017-01-13T02:31:59.169Z,985.85
2017-01-13T02:32:59.955Z,985.82
2017-01-13T02:34:00.722Z,985.83
2017-01-13T02:35:01.479Z,985.79
2017-01-13T02:36:02.229Z,985.81
2017-01-13T02:37:02.979Z,985.68
2017-01-13T02:38:03.741Z,985.72
2017-01-13T02:39:07.192Z,985.68
2017-01-13T02:40:07.968Z,985.65
2017-01-13T02:41:08.740Z,985.68
2017-01-13T02:42:09.508Z,985.58
2017-01-13T02:43:10.265Z,985.61
2017-01-13T02:44:11.014Z,985.6
2017-01-13T02:45:11.842Z,985.56
2017-01-13T02:46:12.650Z,985.56
2017-01-13T02:47:13.401Z,985.5
2017-01-13T02:48:14.150Z,985.43
2017-01-13T02:49:14.909Z,985.4
2017-01-13T02:50:15.832Z,985.39
2017-01-13T02:51:17.337Z,985.33
2017-01-13T02:52:18.256Z,985.36
2017-01-13T02:53:19.065Z,985.29
2017-01-13T02:54:19.846Z,985.33
2017-01-13T02:55:20.594Z,985.29
2017-01-13T02:56:21.358Z,985.27
2017-01-13T02:57:22.123Z,985.26
2017-01-13T02:58:22.901Z,985.21
2017-01-13T02:59:23.644Z,985.1
2017-01-13T03:00:24.408Z,985.16
2017-01-13T03:01:25.171Z,985.09
2017-01-13T03:02:25.930Z,985.1
2017-01-13T03:03:26.689Z,985.11
2017-01-13T03:04:27.452Z,985.02
2017-01-13T03:05:28.215Z,985.01
2017-01-13T03:06:28.955Z,985
2017-01-13T03:07:29.721Z,984.95
2017-01-13T03:08:30.492Z,984.97
2017-01-13T03:09:31.242Z,984.84
2017-01-13T03:10:31.997Z,984.8
2017-01-13T03:11:32.773Z,984.76
2017-01-13T03:12:33.536Z,984.74
2017-01-13T03:13:34.342Z,984.71
2017-01-13T03:14:35.378Z,984.71
2017-01-13T03:15:35.863Z,984.64
2017-01-13T03:16:36.620Z,984.64
2017-01-13T03:17:37.384Z,984.56
2017-01-13T03:18:38.158Z,984.54
2017-01-13T03:19:38.932Z,984.53
2017-01-13T03:20:39.699Z,984.46
2017-01-13T03:21:40.482Z,984.41
2017-01-13T03:22:41.217Z,984.38
2017-01-13T03:23:41.970Z,984.41
2017-01-13T03:24:42.728Z,984.33
2017-01-13T03:25:43.476Z,984.3
2017-01-13T03:26:44.220Z,984.19
2017-01-13T03:27:44.978Z,984.18
2017-01-13T03:28:45.742Z,984.13
2017-01-13T03:29:46.492Z,984.18
2017-01-13T03:30:47.234Z,984.09
2017-01-13T03:31:47.975Z,984.03
2017-01-13T03:32:48.707Z,984.08
2017-01-13T03:33:49.461Z,983.98
2017-01-13T03:34:50.201Z,983.95
2017-01-13T03:35:50.955Z,983.95
2017-01-13T03:36:51.697Z,983.88
2017-01-13T03:37:52.449Z,983.88
2017-01-13T03:38:53.203Z,983.78
2017-01-13T03:39:53.965Z,983.79
2017-01-13T03:40:54.726Z,983.77
2017-01-13T03:41:55.512Z,983.71
2017-01-13T03:42:56.243Z,983.73
2017-01-13T03:43:57.026Z,983.68
2017-01-13T03:44:57.774Z,983.69
2017-01-13T03:45:58.518Z,983.65
2017-01-13T03:46:59.293Z,983.73
2017-01-13T03:48:00.041Z,983.63
2017-01-13T03:49:00.794Z,983.72
2017-01-13T03:50:01.550Z,983.67
2017-01-13T03:51:02.305Z,983.7
2017-01-13T03:52:03.059Z,983.65
2017-01-13T03:53:03.841Z,983.6
2017-01-13T03:54:04.593Z,983.63
2017-01-13T03:55:05.389Z,983.68
2017-01-13T03:56:06.128Z,983.67
2017-01-13T03:57:06.886Z,983.68
2017-01-13T03:58:07.645Z,983.7
2017-01-13T03:59:08.402Z,983.69
2017-01-13T04:00:09.172Z,983.7
2017-01-13T04:01:09.916Z,983.69
2017-01-13T04:02:10.709Z,983.65
2017-01-13T04:03:11.467Z,983.6
2017-01-13T04:04:12.219Z,983.64
2017-01-13T04:05:12.979Z,983.59
2017-01-13T04:06:13.745Z,983.65
2017-01-13T04:07:14.496Z,983.61
2017-01-13T04:08:15.260Z,983.61
2017-01-13T04:09:16.044Z,983.54
2017-01-13T04:10:16.788Z,983.56
2017-01-13T04:11:17.541Z,983.62
2017-01-13T04:12:18.288Z,983.57
2017-01-13T04:13:19.080Z,983.57
2017-01-13T04:14:19.852Z,983.51
2017-01-13T04:15:20.616Z,983.59
2017-01-13T04:16:21.361Z,983.6
2017-01-13T04:17:22.110Z,983.59
2017-01-13T04:18:22.862Z,983.61
2017-01-13T04:19:23.632Z,983.59
2017-01-13T04:20:24.384Z,983.59
2017-01-13T04:21:25.145Z,983.66
2017-01-13T04:22:25.883Z,983.6
2017-01-13T04:23:26.640Z,983.6
2017-01-13T04:24:27.394Z,983.59
2017-01-13T04:25:28.153Z,983.58
2017-01-13T04:26:28.925Z,983.62
2017-01-13T04:27:29.683Z,983.6
2017-01-13T04:28:30.464Z,983.64
2017-01-13T04:29:31.205Z,983.59
2017-01-13T04:30:31.988Z,983.54
2017-01-13T04:31:32.735Z,983.57
2017-01-13T04:32:33.478Z,983.58
2017-01-13T04:33:34.238Z,983.54
2017-01-13T04:34:34.990Z,983.56
2017-01-13T04:35:35.744Z,983.57
2017-01-13T04:36:36.518Z,983.56
2017-01-13T04:37:37.293Z,983.59
2017-01-13T04:38:38.057Z,983.66
2017-01-13T04:39:38.813Z,983.61
2017-01-13T04:40:39.549Z,983.63
2017-01-13T04:41:40.310Z,983.6
2017-01-13T04:42:41.060Z,983.59
2017-01-13T04:43:41.809Z,983.59
2017-01-13T04:44:42.556Z,983.61
2017-01-13T04:45:43.294Z,983.61
2017-01-13T04:46:44.062Z,983.61
2017-01-13T04:47:44.808Z,983.6
2017-01-13T04:48:45.558Z,983.59
2017-01-13T04:49:46.344Z,983.61
2017-01-13T04:50:47.080Z,983.63
2017-01-13T04:51:47.835Z,983.64
2017-01-13T04:52:48.592Z,983.69
2017-01-13T04:53:49.360Z,983.65
2017-01-13T04:54:50.112Z,983.67
2017-01-13T04:55:50.883Z,983.67
2017-01-13T04:56:51.625Z,983.65
2017-01-13T04:57:52.373Z,983.67
2017-01-13T04:58:53.127Z,983.68
2017-01-13T04:59:53.876Z,983.67
2017-01-13T05:00:54.614Z,983.67
2017-01-13T05:01:55.383Z,983.69
2017-01-13T05:02:56.146Z,983.68
2017-01-13T05:03:56.878Z,983.7
2017-01-13T05:04:57.622Z,983.7
2017-01-13T05:05:58.377Z,983.77
2017-01-13T05:06:59.124Z,983.71
2017-01-13T05:07:59.870Z,983.69
2017-01-13T05:09:00.614Z,983.76
2017-01-13T05:10:01.391Z,983.75
2017-01-13T05:11:02.141Z,983.75
2017-01-13T05:12:02.899Z,983.78
2017-01-13T05:13:03.664Z,983.78
2017-01-13T05:14:04.416Z,983.84
2017-01-13T05:15:05.160Z,983.77
2017-01-13T05:16:05.896Z,983.82
2017-01-13T05:17:06.661Z,983.83
2017-01-13T05:18:07.420Z,983.87
2017-01-13T05:19:08.172Z,983.84
2017-01-13T05:20:08.922Z,983.85
2017-01-13T05:21:09.674Z,983.94
2017-01-13T05:22:10.464Z,983.92
2017-01-13T05:23:11.214Z,983.92
2017-01-13T05:24:12.005Z,983.98
2017-01-13T05:25:12.766Z,983.95
2017-01-13T05:26:13.513Z,983.95
2017-01-13T05:27:14.280Z,983.94
2017-01-13T05:28:15.026Z,983.9
2017-01-13T05:29:15.767Z,983.91
2017-01-13T05:30:23.342Z,983.93
2017-01-13T05:31:24.122Z,983.94
2017-01-13T05:32:25.024Z,983.95
2017-01-13T05:33:25.765Z,984.01
2017-01-13T05:34:26.611Z,984.02
2017-01-13T05:35:27.971Z,984.04
2017-01-13T05:36:29.001Z,984.08
2017-01-13T05:37:29.835Z,984.11
2017-01-13T05:38:30.573Z,984.14
2017-01-13T05:39:31.337Z,984.14
2017-01-13T05:40:32.085Z,984.24
2017-01-13T05:41:32.838Z,984.24
2017-01-13T05:42:33.581Z,984.25
2017-01-13T05:43:34.319Z,984.18
2017-01-13T05:44:35.114Z,984.27
2017-01-13T05:45:35.884Z,984.28
2017-01-13T05:46:36.627Z,984.29
2017-01-13T05:47:37.426Z,984.33
2017-01-13T05:48:38.225Z,984.34
2017-01-13T05:49:38.968Z,984.34
2017-01-13T05:50:39.735Z,984.42
2017-01-13T05:51:40.526Z,984.44
2017-01-13T05:52:41.282Z,984.45
2017-01-13T05:53:42.014Z,984.45
2017-01-13T05:54:42.794Z,984.47
2017-01-13T05:55:43.542Z,984.53
2017-01-13T05:56:44.299Z,984.47
2017-01-13T05:57:45.057Z,984.53
2017-01-13T05:58:45.814Z,984.57
2017-01-13T05:59:46.560Z,984.64
2017-01-13T06:00:47.305Z,984.6
2017-01-13T06:01:48.077Z,984.6
2017-01-13T06:02:48.825Z,984.68
2017-01-13T06:03:49.611Z,984.67
2017-01-13T06:04:50.354Z,984.71
2017-01-13T06:05:51.108Z,984.72
2017-01-13T06:06:51.857Z,984.73
2017-01-13T06:07:52.616Z,984.77
2017-01-13T06:08:53.372Z,984.78
2017-01-13T06:09:54.189Z,984.77
2017-01-13T06:10:54.949Z,984.81
2017-01-13T06:11:55.693Z,984.79
2017-01-13T06:12:56.458Z,984.88
2017-01-13T06:13:57.200Z,984.85
2017-01-13T06:14:57.956Z,984.88
2017-01-13T06:15:58.704Z,984.96
2017-01-13T06:16:59.484Z,984.9
2017-01-13T06:18:00.241Z,984.96
2017-01-13T06:19:00.994Z,985.01
2017-01-13T06:20:01.733Z,985
2017-01-13T06:21:02.486Z,984.96
2017-01-13T06:22:03.256Z,985.12
2017-01-13T06:23:04.007Z,985.03
2017-01-13T06:24:04.750Z,985.08
2017-01-13T06:25:05.511Z,985.13
2017-01-13T06:26:06.262Z,985.15
2017-01-13T06:27:07.025Z,985.19
2017-01-13T06:28:07.804Z,985.16
2017-01-13T06:29:08.582Z,985.23
2017-01-13T06:30:09.353Z,985.21
2017-01-13T06:31:10.103Z,985.26
2017-01-13T06:32:10.857Z,985.34
2017-01-13T06:33:11.597Z,985.33
2017-01-13T06:34:12.341Z,985.42
2017-01-13T06:35:13.084Z,985.44
2017-01-13T06:36:13.823Z,985.43
2017-01-13T06:37:14.603Z,985.46
2017-01-13T06:38:15.358Z,985.48
2017-01-13T06:39:16.249Z,985.5
2017-01-13T06:40:17.003Z,985.51
2017-01-13T06:41:17.778Z,985.56
2017-01-13T06:42:18.552Z,985.63
2017-01-13T06:43:19.326Z,985.62
2017-01-13T06:44:20.116Z,985.66
2017-01-13T06:45:20.886Z,985.69
2017-01-13T06:46:21.652Z,985.75
2017-01-13T06:47:22.424Z,985.72
2017-01-13T06:48:23.178Z,985.76
2017-01-13T06:49:23.920Z,985.78
2017-01-13T06:50:24.659Z,985.84
2017-01-13T06:51:25.419Z,985.85
2017-01-13T06:52:26.140Z,985.87
2017-01-13T06:53:26.879Z,985.92
2017-01-13T06:54:27.654Z,985.94
2017-01-13T06:55:28.457Z,985.98
2017-01-13T06:56:29.212Z,985.98
2017-01-13T06:57:29.961Z,986.03
2017-01-13T06:58:30.702Z,986.08
2017-01-13T06:59:31.454Z,986.11
2017-01-13T07:00:32.223Z,986.14
2017-01-13T07:01:32.972Z,986.15
2017-01-13T07:02:33.731Z,986.18
2017-01-13T07:03:34.510Z,986.21
2017-01-13T07:04:35.246Z,986.25
2017-01-13T07:05:35.997Z,986.34
2017-01-13T07:06:36.750Z,986.33
2017-01-13T07:07:37.494Z,986.46
2017-01-13T07:08:38.250Z,986.36
2017-01-13T07:09:39.032Z,986.47
2017-01-13T07:10:39.794Z,986.48
2017-01-13T07:11:40.535Z,986.49
2017-01-13T07:12:41.293Z,986.6
2017-01-13T07:13:42.042Z,986.61
2017-01-13T07:14:42.790Z,986.65
2017-01-13T07:15:43.547Z,986.63
2017-01-13T07:16:44.305Z,986.7
2017-01-13T07:17:45.052Z,986.72
2017-01-13T07:18:45.819Z,986.75
2017-01-13T07:19:46.550Z,986.78
2017-01-13T07:20:47.332Z,986.83
2017-01-13T07:21:48.112Z,986.88
2017-01-13T07:22:48.903Z,986.92
2017-01-13T07:23:49.649Z,986.94
2017-01-13T07:24:50.396Z,986.98
2017-01-13T07:25:51.148Z,987
2017-01-13T07:26:51.903Z,987.07
2017-01-13T07:27:52.681Z,987.09
2017-01-13T07:28:53.448Z,987.17
2017-01-13T07:29:54.181Z,987.16
2017-01-13T07:30:54.918Z,987.19
2017-01-13T07:31:55.666Z,987.26
2017-01-13T07:32:56.471Z,987.27
2017-01-13T07:33:57.246Z,987.3
2017-01-13T07:34:57.988Z,987.35
2017-01-13T07:35:58.745Z,987.4
2017-01-13T07:36:59.482Z,987.44
2017-01-13T07:38:00.247Z,987.45
2017-01-13T07:39:01.000Z,987.46
2017-01-13T07:40:01.762Z,987.49
2017-01-13T07:41:02.512Z,987.56
2017-01-13T07:42:03.276Z,987.59
2017-01-13T07:43:04.026Z,987.57
2017-01-13T07:44:04.789Z,987.64
2017-01-13T07:45:05.527Z,987.68
2017-01-13T07:46:06.306Z,987.7
2017-01-13T07:47:07.146Z,987.71
2017-01-13T07:48:08.000Z,987.76
2017-01-13T07:49:08.705Z,987.75
2017-01-13T07:50:09.487Z,987.81
2017-01-13T07:51:10.239Z,987.77
2017-01-13T07:52:12.276Z,987.83
2017-01-13T07:53:15.009Z,987.87
2017-01-13T07:54:16.784Z,987.88
2017-01-13T07:55:18.142Z,987.91
2017-01-13T07:56:19.530Z,987.93
2017-01-13T07:57:23.166Z,987.95
2017-01-13T07:58:24.632Z,987.99
2017-01-13T07:59:25.552Z,988.06
2017-01-13T08:00:26.841Z,988.05
2017-01-13T08:01:30.544Z,988.11
2017-01-13T08:02:31.561Z,988.16
2017-01-13T08:03:32.573Z,988.21
2017-01-13T08:04:33.375Z,988.21
2017-01-13T08:05:34.163Z,988.27
2017-01-13T08:06:35.049Z,988.29
2017-01-13T08:07:35.824Z,988.37
2017-01-13T08:08:36.622Z,988.39
2017-01-13T08:09:37.416Z,988.41
2017-01-13T08:10:38.196Z,988.4
2017-01-13T08:11:39.002Z,988.44
2017-01-13T08:12:39.777Z,988.49
2017-01-13T08:13:40.547Z,988.51
2017-01-13T08:14:41.340Z,988.56
2017-01-13T08:15:42.118Z,988.57
2017-01-13T08:16:43.165Z,988.62
2017-01-13T08:17:43.973Z,988.62
2017-01-13T08:18:44.776Z,988.67
2017-01-13T08:19:45.578Z,988.67
2017-01-13T08:20:46.504Z,988.72
2017-01-13T08:21:47.323Z,988.8
2017-01-13T08:22:48.121Z,988.81
2017-01-13T08:23:48.913Z,988.83
2017-01-13T08:24:49.717Z,988.86
2017-01-13T08:25:50.534Z,988.94
2017-01-13T08:26:51.332Z,988.94
2017-01-13T08:27:52.164Z,988.98
2017-01-13T08:28:52.979Z,988.99
2017-01-13T08:29:53.753Z,989.03
2017-01-13T08:30:54.619Z,989.05
2017-01-13T08:31:55.431Z,989.11
2017-01-13T08:32:56.284Z,989.21
2017-01-13T08:33:57.086Z,989.26
2017-01-13T08:34:57.905Z,989.29
2017-01-13T08:35:58.722Z,989.37
2017-01-13T08:36:59.551Z,989.41
2017-01-13T08:38:00.351Z,989.41
2017-01-13T08:39:01.174Z,989.53
2017-01-13T08:40:01.984Z,989.53
2017-01-13T08:41:02.790Z,989.58
2017-01-13T08:42:03.582Z,989.58
2017-01-13T08:43:04.376Z,989.6
2017-01-13T08:44:05.228Z,989.62
2017-01-13T08:45:06.018Z,989.72
2017-01-13T08:46:06.833Z,989.7
2017-01-13T08:47:07.596Z,989.71
2017-01-13T08:48:08.416Z,989.72
2017-01-13T08:49:09.288Z,989.74
2017-01-13T08:50:10.099Z,989.77
2017-01-13T08:51:11.153Z,989.82
2017-01-13T08:52:11.975Z,989.85
2017-01-13T08:53:12.799Z,989.91
2017-01-13T08:54:13.616Z,989.95
2017-01-13T08:55:14.402Z,990.01
2017-01-13T08:56:15.237Z,990.02
2017-01-13T08:57:16.082Z,990.03
2017-01-13T08:58:16.842Z,990.06
2017-01-13T08:59:17.674Z,990.09
2017-01-13T09:00:18.493Z,990.12
2017-01-13T09:01:19.329Z,990.14
2017-01-13T09:02:20.140Z,990.12
2017-01-13T09:03:20.976Z,990.2
2017-01-13T09:04:21.752Z,990.2
2017-01-13T09:05:22.596Z,990.23
2017-01-13T09:06:23.395Z,990.26
2017-01-13T09:07:24.199Z,990.33
2017-01-13T09:08:25.011Z,990.32
2017-01-13T09:09:25.783Z,990.41
2017-01-13T09:10:26.536Z,990.43
2017-01-13T09:11:27.297Z,990.43
2017-01-13T09:12:28.056Z,990.5
2017-01-13T09:13:28.817Z,990.53
2017-01-13T09:14:29.586Z,990.58
2017-01-13T09:15:30.324Z,990.53
2017-01-13T09:16:31.092Z,990.6
2017-01-13T09:17:31.864Z,990.65
2017-01-13T09:18:32.661Z,990.68
2017-01-13T09:19:33.424Z,990.74
2017-01-13T09:20:34.197Z,990.75
2017-01-13T09:21:34.960Z,990.76
2017-01-13T09:22:35.727Z,990.82
2017-01-13T09:23:36.498Z,990.83
2017-01-13T09:24:37.279Z,990.89
2017-01-13T09:25:38.050Z,990.92
2017-01-13T09:26:38.791Z,990.92
2017-01-13T09:27:39.566Z,990.98
2017-01-13T09:28:40.343Z,990.98
2017-01-13T09:29:41.102Z,991
2017-01-13T09:30:41.845Z,991.02
2017-01-13T09:31:42.604Z,991.07
2017-01-13T09:32:43.392Z,991.11
2017-01-13T09:33:44.164Z,991.08
2017-01-13T09:34:44.926Z,991.17
2017-01-13T09:35:45.693Z,991.18
2017-01-13T09:36:46.435Z,991.19
2017-01-13T09:37:47.194Z,991.22
2017-01-13T09:38:47.976Z,991.24
2017-01-13T09:39:48.750Z,991.26
2017-01-13T09:40:49.525Z,991.32
2017-01-13T09:41:50.299Z,991.33
2017-01-13T09:42:51.076Z,991.35
2017-01-13T09:43:51.851Z,991.42
2017-01-13T09:44:52.633Z,991.47
2017-01-13T09:45:53.411Z,991.41
2017-01-13T09:46:54.243Z,991.46
2017-01-13T09:47:55.023Z,991.5
2017-01-13T09:48:55.795Z,991.55
2017-01-13T09:49:56.558Z,991.54
2017-01-13T09:50:57.317Z,991.6
2017-01-13T09:51:58.064Z,991.58
2017-01-13T09:52:58.819Z,991.59
2017-01-13T09:53:59.592Z,991.6
2017-01-13T09:55:00.372Z,991.63
2017-01-13T09:56:01.150Z,991.71
2017-01-13T09:57:01.921Z,991.68
2017-01-13T09:58:02.698Z,991.69
2017-01-13T09:59:03.488Z,991.75
2017-01-13T10:00:04.252Z,991.76
2017-01-13T10:01:05.123Z,991.78
2017-01-13T10:02:05.993Z,991.84
2017-01-13T10:03:06.742Z,991.82
2017-01-13T10:04:07.493Z,991.85
2017-01-13T10:05:08.262Z,991.88
2017-01-13T10:06:09.005Z,991.9
2017-01-13T10:07:09.789Z,991.9
2017-01-13T10:08:10.576Z,991.91
2017-01-13T10:09:11.330Z,991.92
2017-01-13T10:10:12.103Z,991.96
2017-01-13T10:11:12.901Z,991.94
2017-01-13T10:12:13.641Z,991.95
2017-01-13T10:13:14.426Z,991.97
2017-01-13T10:14:15.197Z,992
2017-01-13T10:15:15.974Z,992.06
2017-01-13T10:16:16.767Z,992.04
2017-01-13T10:17:17.583Z,992.08
2017-01-13T10:18:18.349Z,992.09
2017-01-13T10:19:19.089Z,992.16
2017-01-13T10:20:19.853Z,992.18
2017-01-13T10:21:20.626Z,992.21
2017-01-13T10:22:21.393Z,992.18
2017-01-13T10:23:22.150Z,992.18
2017-01-13T10:24:22.900Z,992.25
2017-01-13T10:25:23.648Z,992.28
2017-01-13T10:26:24.403Z,992.33
2017-01-13T10:27:25.173Z,992.33
2017-01-13T10:28:25.932Z,992.31
2017-01-13T10:29:26.694Z,992.35
2017-01-13T10:30:27.473Z,992.38
2017-01-13T10:31:28.239Z,992.39
2017-01-13T10:32:29.079Z,992.45
2017-01-13T10:33:29.864Z,992.46
2017-01-13T10:34:30.615Z,992.43
2017-01-13T10:35:31.440Z,992.48
2017-01-13T10:36:32.214Z,992.54
2017-01-13T10:37:32.966Z,992.58
2017-01-13T10:38:33.720Z,992.58
2017-01-13T10:39:34.485Z,992.57
2017-01-13T10:40:35.226Z,992.57
2017-01-13T10:41:36.024Z,992.63
2017-01-13T10:42:36.772Z,992.6
2017-01-13T10:43:37.538Z,992.65
2017-01-13T10:44:38.438Z,992.66
2017-01-13T10:45:39.194Z,992.69
2017-01-13T10:46:39.942Z,992.68
2017-01-13T10:47:40.724Z,992.68
2017-01-13T10:48:42.107Z,992.72
2017-01-13T10:49:42.927Z,992.72
2017-01-13T10:50:43.788Z,992.73
2017-01-13T10:51:44.536Z,992.75
2017-01-13T10:52:45.299Z,992.72
2017-01-13T10:53:46.063Z,992.83
2017-01-13T10:54:46.816Z,992.85
2017-01-13T10:55:47.587Z,992.83
2017-01-13T10:56:48.332Z,992.85
2017-01-13T10:57:49.091Z,992.87
2017-01-13T10:58:49.834Z,992.9
2017-01-13T10:59:50.602Z,992.89
2017-01-13T11:00:51.357Z,992.86
2017-01-13T11:01:52.112Z,992.88
2017-01-13T11:02:52.878Z,992.85
2017-01-13T11:03:53.647Z,992.88
2017-01-13T11:04:54.424Z,992.92
2017-01-13T11:05:55.179Z,992.91
2017-01-13T11:06:55.931Z,992.99
2017-01-13T11:07:56.695Z,993.01
2017-01-13T11:08:57.463Z,993.05
2017-01-13T11:09:58.227Z,993.08
2017-01-13T11:10:59.009Z,993.08
2017-01-13T11:11:59.781Z,993.17
2017-01-13T11:13:00.555Z,993.15
2017-01-13T11:14:01.323Z,993.13
2017-01-13T11:15:02.109Z,993.11
2017-01-13T11:16:02.882Z,993.13
2017-01-13T11:17:03.654Z,993.16
2017-01-13T11:18:04.417Z,993.17
2017-01-13T11:19:05.177Z,993.18
2017-01-13T11:20:05.948Z,993.18
2017-01-13T11:21:06.701Z,993.15
2017-01-13T11:22:07.481Z,993.16
2017-01-13T11:23:08.246Z,993.18
2017-01-13T11:24:09.003Z,993.2
2017-01-13T11:25:09.776Z,993.2
2017-01-13T11:26:10.543Z,993.22
2017-01-13T11:27:11.307Z,993.2
2017-01-13T11:28:12.230Z,993.21
2017-01-13T11:29:14.855Z,993.26
2017-01-13T11:30:15.618Z,993.22
2017-01-13T11:31:17.013Z,993.29
2017-01-13T11:32:18.517Z,993.32
2017-01-13T11:33:20.851Z,993.29
2017-01-13T11:34:26.921Z,993.3
2017-01-13T11:35:29.948Z,993.27
2017-01-13T11:37:41.826Z,993.34
2017-01-13T11:38:48.259Z,993.36
2017-01-13T11:39:46.899Z,993.33
2017-01-13T11:40:53.917Z,993.33
2017-01-13T13:20:03.144Z,994.53
2017-01-13T13:21:03.886Z,994.55
2017-01-13T13:22:04.624Z,994.52
2017-01-13T13:23:05.352Z,994.53
2017-01-13T13:24:06.090Z,994.57
2017-01-13T13:25:06.824Z,994.59
2017-01-13T13:26:07.559Z,994.54
2017-01-13T13:27:08.287Z,994.53
2017-01-13T13:28:09.016Z,994.56
2017-01-13T13:29:09.757Z,994.57
2017-01-13T13:30:10.491Z,994.56
2017-01-13T13:31:11.238Z,994.6
2017-01-13T13:32:11.985Z,994.59
2017-01-13T13:33:12.723Z,994.67
2017-01-13T13:34:13.483Z,994.6
2017-01-13T13:35:14.236Z,994.62
2017-01-13T13:36:14.988Z,994.7
2017-01-13T13:37:15.748Z,994.72
2017-01-13T13:38:16.500Z,994.68
2017-01-13T13:39:17.227Z,994.74
2017-01-13T13:40:18.032Z,994.74
2017-01-13T13:41:18.743Z,994.77
2017-01-13T13:42:19.479Z,994.76
2017-01-13T13:43:20.228Z,994.78
2017-01-13T13:44:21.020Z,994.78
2017-01-13T13:45:21.810Z,994.79
2017-01-13T13:46:22.570Z,994.81
2017-01-13T13:47:23.328Z,994.83
2017-01-13T13:48:24.118Z,994.83
2017-01-13T13:49:24.872Z,994.78
2017-01-13T13:50:25.630Z,994.79
2017-01-13T13:51:26.420Z,994.8
2017-01-13T13:52:27.156Z,994.78
2017-01-13T13:53:27.933Z,994.83
2017-01-13T13:54:28.755Z,994.84
2017-01-13T13:55:29.536Z,994.86
2017-01-13T13:56:30.337Z,994.86
2017-01-13T13:57:31.080Z,994.86
2017-01-13T13:58:31.832Z,994.86
2017-01-13T13:59:32.571Z,994.93
2017-01-13T14:00:33.373Z,994.93
2017-01-13T14:01:34.127Z,994.91
2017-01-13T14:02:34.876Z,994.96
2017-01-13T14:03:35.637Z,994.95
2017-01-13T14:04:36.390Z,994.95
2017-01-13T14:05:37.134Z,994.95
2017-01-13T14:06:37.958Z,994.95
2017-01-13T14:07:38.694Z,994.99
2017-01-13T14:08:39.435Z,994.97
2017-01-13T14:09:40.177Z,994.95
2017-01-13T14:10:40.944Z,994.98
2017-01-13T14:11:41.695Z,994.96
2017-01-13T14:12:42.448Z,994.99
2017-01-13T14:13:43.179Z,994.95
2017-01-13T14:14:43.930Z,995.04
2017-01-13T14:15:44.707Z,995.03
2017-01-13T14:16:45.455Z,995.03
2017-01-13T14:17:46.206Z,995.03
2017-01-13T14:18:46.998Z,995.03
2017-01-13T14:19:47.748Z,995.03
2017-01-13T14:20:48.499Z,995.07